createdAt,value
2018-08-30T00:01:56.962Z,28.73
2018-08-30T00:04:25.353Z,28.23
2018-08-30T00:06:53.726Z,27.87
2018-08-30T00:09:22.140Z,27.87
2018-08-30T00:11:50.512Z,27.00
2018-08-30T00:14:18.932Z,28.07
2018-08-30T00:16:47.369Z,28.80
2018-08-30T00:19:15.721Z,29.77
2018-08-30T00:21:44.133Z,29.97
2018-08-30T00:24:12.606Z,26.47
2018-08-30T00:26:42.204Z,29.40
2018-08-30T00:29:13.645Z,28.10
2018-08-30T00:31:42.065Z,28.43
2018-08-30T00:34:10.475Z,28.27
2018-08-30T00:36:38.839Z,30.03
2018-08-30T00:39:08.486Z,30.03
2018-08-30T00:41:37.105Z,31.53
2018-08-30T00:44:05.696Z,33.00
2018-08-30T00:46:34.801Z,34.60
2018-08-30T00:49:03.161Z,35.23
2018-08-30T00:51:31.569Z,35.77
2018-08-30T00:53:59.985Z,34.87
2018-08-30T00:56:28.407Z,37.57
2018-08-30T00:58:56.770Z,36.87
2018-08-30T01:01:25.169Z,37.93
2018-08-30T01:03:53.608Z,34.97
2018-08-30T01:06:21.977Z,37.30
2018-08-30T01:08:50.389Z,34.10
2018-08-30T01:11:18.837Z,37.87
2018-08-30T01:13:47.255Z,36.87
2018-08-30T01:16:15.717Z,30.83
2018-08-30T01:18:44.057Z,35.47
2018-08-30T01:21:12.454Z,37.23
2018-08-30T01:23:40.901Z,33.90
2018-08-30T01:26:09.280Z,36.47
2018-08-30T01:28:37.649Z,36.57
2018-08-30T01:31:06.061Z,37.20
2018-08-30T01:33:34.496Z,36.33
2018-08-30T01:36:03.021Z,36.27
2018-08-30T01:38:31.490Z,29.87
2018-08-30T01:40:59.846Z,35.73
2018-08-30T01:43:28.240Z,34.70
2018-08-30T01:45:56.597Z,28.93
2018-08-30T01:48:24.987Z,31.57
2018-08-30T01:50:53.493Z,32.50
2018-08-30T01:53:21.893Z,29.93
2018-08-30T01:55:50.297Z,32.87
2018-08-30T01:58:18.700Z,32.63
2018-08-30T02:00:47.108Z,33.27
2018-08-30T02:03:15.490Z,32.27
2018-08-30T02:05:43.993Z,32.80
2018-08-30T02:08:12.497Z,31.70
2018-08-30T02:10:40.930Z,31.13
2018-08-30T02:13:09.295Z,31.30
2018-08-30T02:15:37.661Z,30.30
2018-08-30T02:18:06.165Z,33.00
2018-08-30T02:20:34.661Z,31.43
2018-08-30T02:23:03.050Z,30.77
2018-08-30T02:25:32.149Z,32.20
2018-08-30T02:28:00.493Z,30.07
2018-08-30T02:30:28.934Z,29.83
2018-08-30T02:32:57.276Z,30.07
2018-08-30T02:35:25.664Z,31.83
2018-08-30T02:37:54.093Z,30.07
2018-08-30T02:40:22.466Z,30.40
2018-08-30T02:42:50.901Z,28.23
2018-08-30T02:45:19.281Z,29.07
2018-08-30T02:47:47.630Z,27.53
2018-08-30T02:50:15.994Z,29.50
2018-08-30T02:52:45.008Z,29.97
2018-08-30T02:55:13.420Z,27.73
2018-08-30T02:57:41.813Z,27.93
2018-08-30T03:00:10.200Z,29.30
2018-08-30T03:02:38.624Z,28.63
2018-08-30T03:05:07.037Z,31.20
2018-08-30T03:07:35.463Z,28.63
2018-08-30T03:10:03.971Z,29.03
2018-08-30T03:12:32.873Z,29.77
2018-08-30T03:15:10.033Z,30.27
2018-08-30T03:17:38.429Z,30.43
2018-08-30T03:20:08.620Z,31.00
2018-08-30T03:22:37.956Z,31.33
2018-08-30T03:25:06.453Z,30.27
2018-08-30T03:27:34.853Z,31.10
2018-08-30T03:30:03.464Z,31.57
2018-08-30T03:32:32.508Z,30.93
2018-08-30T03:35:00.880Z,29.07
2018-08-30T03:37:29.300Z,28.47
2018-08-30T03:39:57.713Z,30.53
2018-08-30T03:42:26.169Z,28.83
2018-08-30T03:44:54.652Z,28.70
2018-08-30T03:47:23.073Z,30.07
2018-08-30T03:49:51.434Z,29.70
2018-08-30T03:52:19.853Z,29.17
2018-08-30T03:54:48.221Z,29.33
2018-08-30T03:57:16.658Z,26.67
2018-08-30T03:59:45.129Z,27.33
2018-08-30T04:02:13.506Z,28.00
2018-08-30T04:04:41.876Z,27.30
2018-08-30T04:07:10.313Z,27.17
2018-08-30T04:09:38.780Z,26.43
2018-08-30T04:12:07.795Z,25.17
2018-08-30T04:14:36.281Z,27.63
2018-08-30T04:17:04.924Z,23.67
2018-08-30T04:19:33.285Z,25.10
2018-08-30T04:22:01.784Z,24.83
2018-08-30T04:24:30.205Z,23.67
2018-08-30T04:26:58.654Z,24.00
2018-08-30T04:29:27.001Z,24.33
2018-08-30T04:31:55.357Z,22.63
2018-08-30T04:34:23.817Z,25.43
2018-08-30T04:36:52.232Z,21.50
2018-08-30T04:39:20.760Z,22.50
2018-08-30T04:41:49.177Z,21.13
2018-08-30T04:44:17.540Z,20.83
2018-08-30T04:46:45.950Z,20.73
2018-08-30T04:49:14.319Z,20.63
2018-08-30T04:51:42.725Z,21.23
2018-08-30T04:54:11.165Z,21.67
2018-08-30T04:56:40.259Z,22.67
2018-08-30T04:59:08.684Z,18.43
2018-08-30T05:01:37.087Z,20.00
2018-08-30T05:04:05.505Z,24.33
2018-08-30T05:06:34.062Z,20.20
2018-08-30T05:09:02.503Z,19.53
2018-08-30T05:11:30.896Z,18.87
2018-08-30T05:13:59.289Z,17.10
2018-08-30T05:16:27.686Z,19.37
2018-08-30T05:18:56.069Z,18.07
2018-08-30T05:21:24.458Z,19.37
2018-08-30T05:23:52.879Z,16.57
2018-08-30T05:26:21.269Z,15.47
2018-08-30T05:28:49.665Z,15.07
2018-08-30T05:31:18.077Z,15.37
2018-08-30T05:33:46.518Z,16.27
2018-08-30T05:36:14.913Z,14.37
2018-08-30T05:38:43.401Z,14.77
2018-08-30T05:41:11.759Z,15.93
2018-08-30T05:43:40.254Z,14.93
2018-08-30T05:46:08.667Z,16.83
2018-08-30T05:48:37.095Z,13.33
2018-08-30T05:51:05.858Z,13.70
2018-08-30T05:53:34.240Z,14.90
2018-08-30T05:56:02.849Z,13.60
2018-08-30T05:58:31.222Z,15.87
2018-08-30T06:00:59.865Z,13.73
2018-08-30T06:03:29.307Z,11.43
2018-08-30T06:05:57.781Z,14.60
2018-08-30T06:08:26.891Z,14.17
2018-08-30T06:10:55.263Z,12.53
2018-08-30T06:13:23.692Z,12.27
2018-08-30T06:15:52.122Z,11.40
2018-08-30T06:18:20.565Z,14.80
2018-08-30T06:20:48.928Z,12.37
2018-08-30T06:23:17.329Z,13.30
2018-08-30T06:25:47.660Z,12.83
2018-08-30T06:30:49.710Z,7.80
2018-08-30T06:33:18.330Z,10.17
2018-08-30T06:35:46.891Z,12.53
2018-08-30T06:38:15.294Z,9.13
2018-08-30T06:40:43.728Z,11.10
2018-08-30T06:43:12.205Z,12.40
2018-08-30T06:45:41.699Z,12.97
2018-08-30T06:48:10.096Z,11.00
2018-08-30T06:50:38.650Z,12.63
2018-08-30T06:53:07.084Z,13.60
2018-08-30T06:55:35.477Z,9.97
2018-08-30T06:58:03.840Z,10.73
2018-08-30T07:00:32.364Z,22.23
2018-08-30T07:03:00.749Z,11.43
2018-08-30T07:05:29.157Z,10.03
2018-08-30T07:07:57.655Z,10.17
2018-08-30T07:10:26.259Z,8.63
2018-08-30T07:12:54.646Z,12.20
2018-08-30T07:15:23.050Z,11.80
2018-08-30T07:17:51.429Z,11.43
2018-08-30T07:20:20.352Z,11.60
2018-08-30T07:22:48.812Z,9.60
2018-08-30T07:25:17.233Z,9.17
2018-08-30T07:27:45.596Z,12.13
2018-08-30T07:30:14.913Z,10.23
2018-08-30T07:32:43.524Z,9.70
2018-08-30T07:35:12.053Z,9.90
2018-08-30T07:37:40.400Z,9.93
2018-08-30T07:40:08.851Z,9.87
2018-08-30T07:42:37.333Z,13.63
2018-08-30T07:45:05.769Z,11.53
2018-08-30T07:47:34.129Z,8.40
2018-08-30T07:50:02.541Z,14.33
2018-08-30T07:52:30.986Z,17.83
2018-08-30T07:54:59.390Z,9.57
2018-08-30T07:57:27.820Z,9.60
2018-08-30T07:59:56.242Z,6.23
2018-08-30T08:02:24.664Z,10.70
2018-08-30T08:04:53.109Z,7.47
2018-08-30T08:07:21.605Z,9.77
2018-08-30T08:09:49.929Z,7.37
2018-08-30T08:12:18.343Z,7.67
2018-08-30T08:14:46.762Z,9.70
2018-08-30T08:17:15.167Z,8.97
2018-08-30T08:19:43.583Z,7.33
2018-08-30T08:22:11.975Z,11.77
2018-08-30T08:24:41.010Z,7.50
2018-08-30T08:27:09.416Z,7.90
2018-08-30T08:29:37.916Z,5.33
2018-08-30T08:32:06.326Z,6.33
2018-08-30T08:34:34.702Z,7.00
2018-08-30T08:37:03.075Z,8.77
2018-08-30T08:39:31.528Z,7.17
2018-08-30T08:41:59.909Z,9.13
2018-08-30T08:44:28.305Z,6.97
2018-08-30T08:46:56.742Z,6.77
2018-08-30T08:49:25.127Z,5.67
2018-08-30T08:51:53.537Z,7.90
2018-08-30T08:54:21.954Z,9.13
2018-08-30T08:56:50.338Z,7.47
2018-08-30T08:59:18.881Z,9.40
2018-08-30T09:01:47.293Z,4.50
2018-08-30T09:04:15.705Z,9.03
2018-08-30T09:06:44.200Z,5.93
2018-08-30T09:09:13.117Z,6.77
2018-08-30T09:11:42.065Z,6.77
2018-08-30T09:14:10.525Z,7.73
2018-08-30T09:16:38.912Z,8.60
2018-08-30T09:19:07.421Z,4.50
2018-08-30T09:21:35.893Z,6.10
2018-08-30T09:24:04.297Z,8.77
2018-08-30T09:26:32.733Z,8.43
2018-08-30T09:29:01.123Z,8.00
2018-08-30T09:31:29.472Z,3.57
2018-08-30T09:33:58.046Z,7.20
2018-08-30T09:36:26.473Z,7.93
2018-08-30T09:38:54.923Z,10.40
2018-08-30T09:41:23.291Z,8.03
2018-08-30T09:43:51.729Z,9.37
2018-08-30T09:46:20.086Z,6.63
2018-08-30T09:48:48.468Z,7.77
2018-08-30T09:51:16.993Z,7.57
2018-08-30T09:53:45.369Z,7.90
2018-08-30T09:56:13.712Z,7.10
2018-08-30T09:58:42.105Z,6.03
2018-08-30T10:01:15.730Z,5.87
2018-08-30T10:03:44.128Z,7.87
2018-08-30T10:06:12.595Z,5.73
2018-08-30T10:08:41.003Z,6.73
2018-08-30T10:11:09.385Z,7.20
2018-08-30T10:13:37.926Z,6.93
2018-08-30T10:16:06.480Z,8.40
2018-08-30T10:18:34.870Z,6.47
2018-08-30T10:21:03.289Z,5.27
2018-08-30T10:23:31.881Z,6.43
2018-08-30T10:26:00.266Z,7.93
2018-08-30T10:28:28.686Z,6.07
2018-08-30T10:30:57.084Z,8.07
2018-08-30T10:33:25.457Z,6.50
2018-08-30T10:35:54.198Z,6.40
2018-08-30T10:38:22.691Z,4.53
2018-08-30T10:40:51.057Z,7.00
2018-08-30T10:43:19.505Z,8.13
2018-08-30T10:45:47.895Z,4.50
2018-08-30T10:48:16.293Z,12.67
2018-08-30T10:50:44.732Z,6.33
2018-08-30T10:53:13.120Z,6.43
2018-08-30T10:55:41.757Z,5.80
2018-08-30T10:58:10.156Z,6.77
2018-08-30T11:00:38.629Z,7.93
2018-08-30T11:03:07.065Z,7.87
2018-08-30T11:05:35.551Z,5.67
2018-08-30T11:08:04.063Z,6.67
2018-08-30T11:10:32.705Z,7.27
2018-08-30T11:13:01.201Z,5.10
2018-08-30T11:15:29.478Z,6.13
2018-08-30T11:17:57.953Z,5.43
2018-08-30T11:20:26.822Z,5.42
2018-08-30T11:22:55.224Z,9.10
2018-08-30T11:25:23.657Z,5.47
2018-08-30T11:27:52.050Z,6.73
2018-08-30T11:30:20.521Z,6.77
2018-08-30T11:32:48.885Z,4.03
2018-08-30T11:35:17.268Z,4.97
2018-08-30T11:37:45.677Z,6.80
2018-08-30T11:40:14.041Z,5.40
2018-08-30T11:42:42.509Z,4.57
2018-08-30T11:45:11.003Z,4.87
2018-08-30T11:47:39.408Z,6.33
2018-08-30T11:50:07.832Z,5.23
2018-08-30T11:52:36.325Z,7.50
2018-08-30T11:55:04.782Z,5.53
2018-08-30T11:57:33.160Z,6.60
2018-08-30T12:00:01.585Z,5.83
2018-08-30T12:02:29.985Z,6.87
2018-08-30T12:04:58.434Z,5.97
2018-08-30T12:07:26.842Z,5.50
2018-08-30T12:09:56.845Z,5.77
2018-08-30T12:12:23.997Z,4.57
2018-08-30T12:14:53.202Z,3.40
2018-08-30T12:17:21.622Z,4.33
2018-08-30T12:19:50.101Z,6.43
2018-08-30T12:22:18.629Z,4.27
2018-08-30T12:24:47.861Z,3.60
2018-08-30T12:27:16.325Z,5.43
2018-08-30T12:29:44.764Z,5.67
2018-08-30T12:32:13.142Z,5.93
2018-08-30T12:34:41.521Z,3.87
2018-08-30T12:37:10.025Z,5.63
2018-08-30T12:39:38.479Z,5.53
2018-08-30T12:42:06.905Z,5.27
2018-08-30T12:44:35.270Z,5.53
2018-08-30T12:47:03.626Z,6.27
2018-08-30T12:49:32.095Z,5.73
2018-08-30T12:52:00.545Z,4.07
2018-08-30T12:54:29.034Z,4.60
2018-08-30T12:56:57.446Z,6.10
2018-08-30T12:59:31.255Z,6.67
2018-08-30T13:01:59.737Z,7.37
2018-08-30T13:04:28.284Z,4.53
2018-08-30T13:06:57.531Z,3.60
2018-08-30T13:09:27.292Z,7.67
2018-08-30T13:11:57.495Z,8.47
2018-08-30T13:14:26.001Z,6.33
2018-08-30T13:16:54.626Z,5.27
2018-08-30T13:19:23.192Z,6.57
2018-08-30T13:21:51.563Z,7.97
2018-08-30T13:24:20.109Z,6.20
2018-08-30T13:26:48.584Z,5.07
2018-08-30T13:29:17.122Z,6.23
2018-08-30T13:31:45.844Z,5.33
2018-08-30T13:34:15.371Z,3.43
2018-08-30T13:39:21.657Z,4.33
2018-08-30T13:41:49.886Z,7.83
2018-08-30T13:44:18.050Z,6.80
2018-08-30T13:46:46.550Z,5.87
2018-08-30T13:49:15.391Z,4.97
2018-08-30T13:51:43.869Z,2.80
2018-08-30T13:54:12.477Z,3.23
2018-08-30T13:56:40.865Z,3.90
2018-08-30T13:59:09.442Z,4.20
2018-08-30T14:01:37.699Z,4.17
2018-08-30T14:04:05.916Z,3.03
2018-08-30T14:06:34.320Z,4.27
2018-08-30T14:09:02.786Z,5.00
2018-08-30T14:11:31.221Z,7.10
2018-08-30T14:13:59.582Z,5.00
2018-08-30T14:16:27.701Z,5.40
2018-08-30T14:18:57.449Z,4.73
2018-08-30T14:21:25.909Z,6.00
2018-08-30T14:23:54.308Z,4.93
2018-08-30T14:26:23.496Z,2.60
2018-08-30T14:28:51.779Z,5.67
2018-08-30T14:31:20.261Z,3.20
2018-08-30T14:33:48.638Z,3.57
2018-08-30T14:36:17.120Z,3.73
2018-08-30T14:38:46.200Z,5.73
2018-08-30T14:41:14.465Z,4.53
2018-08-30T14:43:42.714Z,4.77
2018-08-30T14:46:11.075Z,5.07
2018-08-30T14:48:39.687Z,4.93
2018-08-30T14:51:08.105Z,3.97
2018-08-30T14:53:36.534Z,4.67
2018-08-30T14:56:04.869Z,6.00
2018-08-30T14:58:34.133Z,3.37
2018-08-30T15:01:03.691Z,8.47
2018-08-30T15:03:32.051Z,6.23
2018-08-30T15:06:01.170Z,7.97
2018-08-30T15:08:29.475Z,3.97
2018-08-30T15:10:57.969Z,6.67
2018-08-30T15:13:26.494Z,11.87
2018-08-30T15:15:55.132Z,4.57
2018-08-30T15:18:23.365Z,4.43
2018-08-30T15:20:51.780Z,5.40
2018-08-30T15:23:20.241Z,6.90
2018-08-30T15:25:48.571Z,4.03
2018-08-30T15:28:16.989Z,6.67
2018-08-30T15:30:45.357Z,4.53
2018-08-30T15:33:13.755Z,8.30
2018-08-30T15:35:42.269Z,2.93
2018-08-30T15:38:10.671Z,4.63
2018-08-30T15:40:39.046Z,3.57
2018-08-30T15:43:07.533Z,3.57
2018-08-30T15:45:35.875Z,4.47
2018-08-30T15:48:04.370Z,7.80
2018-08-30T15:50:32.741Z,6.07
2018-08-30T15:53:01.186Z,4.27
2018-08-30T15:55:29.546Z,4.20
2018-08-30T15:57:57.982Z,5.20
2018-08-30T16:00:26.342Z,5.30
2018-08-30T16:02:54.746Z,5.53
2018-08-30T16:05:23.253Z,4.00
2018-08-30T16:07:52.329Z,5.63
2018-08-30T16:10:20.726Z,4.70
2018-08-30T16:12:49.132Z,6.23
2018-08-30T16:15:17.687Z,4.80
2018-08-30T16:17:46.156Z,5.37
2018-08-30T16:20:14.554Z,3.97
2018-08-30T16:23:47.939Z,4.60
2018-08-30T16:26:16.330Z,3.77
2018-08-30T16:28:44.723Z,4.30
2018-08-30T16:31:13.993Z,6.53
2018-08-30T16:33:42.417Z,5.27
2018-08-30T16:36:11.845Z,4.90
2018-08-30T16:38:40.545Z,5.37
2018-08-30T16:41:09.960Z,5.27
2018-08-30T16:43:38.577Z,3.43
2018-08-30T16:46:07.090Z,6.63
2018-08-30T16:48:35.504Z,6.10
2018-08-30T16:51:03.909Z,5.23
2018-08-30T16:53:32.362Z,7.87
2018-08-30T16:56:00.844Z,5.27
2018-08-30T16:58:29.258Z,7.10
2018-08-30T17:00:57.697Z,6.07
2018-08-30T17:03:26.203Z,5.30
2018-08-30T17:05:54.617Z,4.97
2018-08-30T17:08:23.171Z,7.83
2018-08-30T17:10:51.800Z,8.27
2018-08-30T17:13:20.327Z,4.37
2018-08-30T17:15:53.258Z,6.97
2018-08-30T17:18:21.804Z,5.33
2018-08-30T17:23:27.711Z,5.70
2018-08-30T17:25:56.097Z,4.07
2018-08-30T17:28:24.973Z,4.53
2018-08-30T17:30:54.066Z,5.17
2018-08-30T17:33:22.477Z,4.97
2018-08-30T17:35:50.930Z,4.57
2018-08-30T17:38:19.295Z,5.20
2018-08-30T17:40:47.692Z,7.10
2018-08-30T17:43:16.062Z,6.03
2018-08-30T17:45:44.493Z,6.17
2018-08-30T17:48:13.746Z,6.23
2018-08-30T17:50:42.125Z,6.33
2018-08-30T17:53:10.528Z,8.20
2018-08-30T17:55:38.909Z,5.50
2018-08-30T17:58:07.333Z,6.30
2018-08-30T18:00:35.826Z,5.70
2018-08-30T18:03:04.287Z,6.77
2018-08-30T18:05:32.680Z,6.70
2018-08-30T18:08:01.078Z,8.17
2018-08-30T18:10:29.546Z,3.47
2018-08-30T18:12:57.944Z,5.07
2018-08-30T18:15:26.322Z,5.40
2018-08-30T18:17:54.791Z,5.97
2018-08-30T18:20:23.186Z,5.67
2018-08-30T18:22:51.573Z,4.07
2018-08-30T18:25:19.959Z,4.67
2018-08-30T18:27:48.342Z,4.40
2018-08-30T18:30:16.725Z,6.13
2018-08-30T18:32:45.124Z,6.17
2018-08-30T18:35:13.600Z,6.20
2018-08-30T18:37:41.929Z,4.20
2018-08-30T18:40:10.736Z,7.17
2018-08-30T18:42:39.414Z,6.80
2018-08-30T18:45:07.837Z,4.47
2018-08-30T18:47:36.576Z,6.30
2018-08-30T18:50:05.062Z,6.27
2018-08-30T18:52:33.761Z,3.93
2018-08-30T18:55:02.312Z,4.83
2018-08-30T18:57:30.680Z,4.33
2018-08-30T18:59:59.097Z,4.87
2018-08-30T19:02:27.759Z,7.95
2018-08-30T19:04:56.214Z,3.47
2018-08-30T19:07:24.606Z,9.40
2018-08-30T19:09:52.972Z,3.70
2018-08-30T19:12:22.310Z,6.17
2018-08-30T19:14:50.953Z,4.20
2018-08-30T19:17:24.953Z,3.87
2018-08-30T19:19:53.370Z,4.67
2018-08-30T19:22:21.737Z,5.83
2018-08-30T19:24:55.394Z,7.27
2018-08-30T19:27:23.775Z,7.43
2018-08-30T19:29:57.612Z,4.50
2018-08-30T19:32:26.053Z,3.67
2018-08-30T19:34:58.368Z,5.13
2018-08-30T19:37:26.866Z,5.10
2018-08-30T19:39:55.377Z,4.03
2018-08-30T19:42:23.829Z,5.37
2018-08-30T19:44:52.210Z,4.53
2018-08-30T19:47:20.602Z,8.83
2018-08-30T19:49:49.022Z,7.77
2018-08-30T19:52:17.455Z,3.77
2018-08-30T19:54:45.927Z,5.53
2018-08-30T19:57:14.285Z,4.30
2018-08-30T19:59:42.669Z,4.60
2018-08-30T20:02:11.131Z,4.90
2018-08-30T20:04:39.527Z,5.50
2018-08-30T20:07:07.924Z,6.20
2018-08-30T20:09:36.413Z,5.70
2018-08-30T20:12:04.881Z,4.47
2018-08-30T20:14:33.323Z,6.83
2018-08-30T20:17:01.727Z,6.50
2018-08-30T20:19:30.105Z,5.70
2018-08-30T20:21:58.518Z,5.63
2018-08-30T20:24:27.374Z,4.60
2018-08-30T20:26:55.762Z,5.43
2018-08-30T20:29:24.122Z,5.13
2018-08-30T20:31:52.625Z,6.20
2018-08-30T20:34:21.012Z,6.97
2018-08-30T20:36:49.481Z,3.70
2018-08-30T20:39:17.844Z,6.33
2018-08-30T20:41:46.193Z,5.67
2018-08-30T20:44:14.597Z,5.20
2018-08-30T20:46:43.532Z,4.07
2018-08-30T20:49:12.393Z,3.43
2018-08-30T20:51:40.793Z,4.03
2018-08-30T20:54:09.291Z,5.53
2018-08-30T20:56:37.772Z,4.83
2018-08-30T20:59:06.169Z,5.13
2018-08-30T21:01:34.502Z,5.13
2018-08-30T21:04:03.046Z,5.23
2018-08-30T21:06:31.825Z,6.83
2018-08-30T21:09:00.308Z,6.23
2018-08-30T21:11:28.831Z,6.63
2018-08-30T21:13:57.221Z,4.23
2018-08-30T21:16:25.589Z,7.47
2018-08-30T21:18:53.969Z,4.33
2018-08-30T21:21:22.330Z,3.73
2018-08-30T21:23:50.705Z,6.03
2018-08-30T21:26:19.128Z,3.63
2018-08-30T21:28:47.493Z,4.53
2018-08-30T21:31:15.993Z,7.27
2018-08-30T21:33:44.368Z,4.00
2018-08-30T21:36:12.858Z,3.70
2018-08-30T21:38:41.441Z,5.10
2018-08-30T21:41:09.785Z,5.97
2018-08-30T21:43:38.153Z,4.57
2018-08-30T21:46:06.657Z,6.27
2018-08-30T21:48:35.306Z,5.07
2018-08-30T21:51:03.721Z,5.20
2018-08-30T21:53:32.130Z,4.47
2018-08-30T21:56:00.472Z,4.40
2018-08-30T21:58:28.872Z,6.03
2018-08-30T22:00:57.855Z,7.03
2018-08-30T22:03:26.190Z,6.07
2018-08-30T22:05:54.599Z,5.87
2018-08-30T22:08:23.728Z,5.53
2018-08-30T22:10:52.110Z,4.90
2018-08-30T22:13:20.659Z,6.00
2018-08-30T22:15:48.953Z,8.53
2018-08-30T22:18:17.381Z,5.57
2018-08-30T22:20:45.757Z,6.73
2018-08-30T22:23:14.132Z,6.97
2018-08-30T22:25:42.666Z,5.67
2018-08-30T22:28:11.057Z,3.07
2018-08-30T22:30:39.432Z,4.43
2018-08-30T22:33:07.853Z,4.70
2018-08-30T22:35:36.209Z,4.77
2018-08-30T22:38:04.665Z,5.57
2018-08-30T22:40:33.066Z,6.33
2018-08-30T22:43:01.464Z,5.57
2018-08-30T22:45:29.878Z,3.17
2018-08-30T22:47:58.253Z,5.43
2018-08-30T22:50:26.639Z,4.83
2018-08-30T22:52:55.073Z,6.03
2018-08-30T22:55:23.425Z,6.13
2018-08-30T22:57:51.832Z,6.63
2018-08-30T23:00:20.229Z,6.47
2018-08-30T23:02:48.595Z,6.10
2018-08-30T23:05:16.968Z,7.10
2018-08-30T23:07:45.423Z,6.60
2018-08-30T23:10:13.793Z,5.97
2018-08-30T23:12:42.173Z,6.33
2018-08-30T23:15:10.618Z,5.20
2018-08-30T23:17:39.004Z,6.07
2018-08-30T23:20:07.417Z,3.93
2018-08-30T23:22:35.815Z,5.57
2018-08-30T23:25:04.265Z,3.97
2018-08-30T23:27:32.620Z,4.30
2018-08-30T23:30:01.014Z,6.20
2018-08-30T23:32:29.431Z,5.47
2018-08-30T23:34:57.806Z,5.17
2018-08-30T23:37:26.197Z,4.43
2018-08-30T23:39:54.625Z,3.80
2018-08-30T23:42:22.998Z,6.90
2018-08-30T23:44:51.357Z,7.53
2018-08-30T23:47:19.757Z,6.63
2018-08-30T23:49:48.221Z,6.63
2018-08-30T23:52:16.602Z,6.23
2018-08-30T23:54:45.010Z,6.10
2018-08-30T23:57:13.388Z,5.70
2018-08-30T23:59:53.065Z,6.90
